PWSweather.com
Personal Weather Stations
Station Observations
BLACKWELL
Blackwell, AlfretonGB DE55

BlackwellAlfretonGB DE55

Lat: 53.12076, Lon: -1.354978

Elevation: 410

Station Type: Vantage Pro

High Low Average
Temperature 45.9°F7.7°C 33.6°F0.9°C 40.8°F4.9°C
Dew Point 43.9°F6.6°C 32.4°F0.2°C 38.1°F3.4°C
Winds 4.0 mph 6.4 kmh Calm Calm 1.0 mph SSE1.6 kmh SSE
Wind Gusts 10.0 mph16.1 kmh -- 4.0 mph6.4 kmh
Humidity 96% 78% 90%
Pressure 29.83 in1010.2 mb 29.61 in1002.7 mb -
Precipitation 0.13 in3.3 mm - -
Hour Temp Dew Point Humidity Winds Wind Gusts Pressure Precip Precip Rate Daily Precip Total
12:44 AM 37.9°F3.3°C 35.6°F2.0°C 91% Calm Calm -- 29.66 in1004.4 mb 0.00 in0.0 mm 0.00 in0.0 mm 0.00 in0.0 mm
01:44 AM 36.9°F2.7°C 34.9°F1.6°C 93% Calm Calm -- 29.70 in1005.8 mb 0.00 in0.0 mm 0.00 in0.0 mm 0.00 in0.0 mm
02:44 AM 35.2°F1.8°C 33.4°F0.8°C 93% Calm Calm -- 29.72 in1006.4 mb 0.00 in0.0 mm 0.00 in0.0 mm 0.00 in0.0 mm
03:44 AM 36.0°F2.2°C 34.5°F1.4°C 94% Calm Calm -- 29.73 in1006.8 mb 0.00 in0.0 mm 0.00 in0.0 mm 0.00 in0.0 mm
04:44 AM 34.7°F1.5°C 33.1°F0.6°C 94% Calm Calm -- 29.77 in1008.1 mb 0.00 in0.0 mm 0.00 in0.0 mm 0.00 in0.0 mm
05:44 AM 34.0°F1.1°C 32.5°F0.3°C 95% Calm Calm -- 29.79 in1008.8 mb 0.00 in0.0 mm 0.00 in0.0 mm 0.00 in0.0 mm
06:44 AM 33.6°F0.9°C 32.4°F0.2°C 95% Calm Calm -- 29.80 in1009.1 mb 0.00 in0.0 mm 0.00 in0.0 mm 0.00 in0.0 mm
07:44 AM 35.8°F2.1°C 34.7°F1.5°C 96% Calm Calm -- 29.82 in1009.8 mb 0.00 in0.0 mm 0.00 in0.0 mm 0.00 in0.0 mm
08:44 AM 39.0°F3.9°C 37.9°F3.3°C 96% Calm Calm 1.0 mph1.6 kmh 29.82 in1009.8 mb 0.00 in0.0 mm 0.00 in0.0 mm 0.00 in0.0 mm
09:44 AM 41.4°F5.2°C 38.3°F3.5°C 89% 2.0 mph WSW3.2 kmh WSW 7.0 mph11.3 kmh 29.83 in1010.2 mb 0.00 in0.0 mm 0.00 in0.0 mm 0.00 in0.0 mm
10:44 AM 42.4°F5.8°C 38.8°F3.8°C 87% 2.0 mph WSW3.2 kmh WSW 7.0 mph11.3 kmh 29.83 in1010.2 mb 0.00 in0.0 mm 0.00 in0.0 mm 0.00 in0.0 mm
11:44 AM 43.7°F6.5°C 38.8°F3.8°C 83% 4.0 mph WSW6.4 kmh WSW 9.0 mph14.5 kmh 29.81 in1009.5 mb 0.00 in0.0 mm 0.00 in0.0 mm 0.00 in0.0 mm
12:44 PM 44.2°F6.8°C 38.5°F3.6°C 80% 3.0 mph WSW4.8 kmh WSW 8.0 mph12.9 kmh 29.79 in1008.8 mb 0.00 in0.0 mm 0.00 in0.0 mm 0.00 in0.0 mm
01:44 PM 45.0°F7.2°C 39.7°F4.3°C 82% 4.0 mph WSW6.4 kmh WSW 10.0 mph16.1 kmh 29.76 in1007.8 mb 0.00 in0.0 mm 0.00 in0.0 mm 0.00 in0.0 mm
02:44 PM 44.1°F6.7°C 40.8°F4.9°C 88% 2.0 mph WSW3.2 kmh WSW 6.0 mph9.7 kmh 29.74 in1007.1 mb 0.02 in0.5 mm 0.00 in0.0 mm 0.02 in0.5 mm
03:44 PM 43.2°F6.2°C 40.8°F4.9°C 91% 3.0 mph WSW4.8 kmh WSW 9.0 mph14.5 kmh 29.71 in1006.1 mb 0.04 in1.0 mm 0.00 in0.0 mm 0.06 in1.5 mm
04:44 PM 43.2°F6.2°C 41.0°F5.0°C 92% 1.0 mph S1.6 kmh S 7.0 mph11.3 kmh 29.67 in1004.7 mb 0.02 in0.5 mm 0.00 in0.0 mm 0.07 in1.8 mm
05:44 PM 43.3°F6.3°C 41.7°F5.4°C 94% 2.0 mph SW3.2 kmh SW 8.0 mph12.9 kmh 29.65 in1004.1 mb 0.04 in1.0 mm 0.00 in0.0 mm 0.11 in2.8 mm
06:44 PM 43.5°F6.4°C 42.1°F5.6°C 95% 1.0 mph SW1.6 kmh SW 6.0 mph9.7 kmh 29.64 in1003.7 mb 0.01 in0.3 mm 0.00 in0.0 mm 0.12 in3.0 mm
07:44 PM 43.7°F6.5°C 42.4°F5.8°C 95% 2.0 mph WSW3.2 kmh WSW 5.0 mph8.0 kmh 29.62 in1003.0 mb 0.00 in0.0 mm 0.00 in0.0 mm 0.12 in3.0 mm
08:44 PM 45.0°F7.2°C 43.9°F6.6°C 96% 3.0 mph SW4.8 kmh SW 8.0 mph12.9 kmh 29.61 in1002.7 mb 0.00 in0.0 mm 0.00 in0.0 mm 0.12 in3.0 mm
09:44 PM 45.9°F7.7°C 42.8°F6.0°C 89% 2.0 mph SW3.2 kmh SW 8.0 mph12.9 kmh 29.62 in1003.0 mb 0.01 in0.3 mm 0.00 in0.0 mm 0.13 in3.3 mm
10:44 PM 44.8°F7.1°C 39.9°F4.4°C 83% 1.0 mph SW1.6 kmh SW 5.0 mph8.0 kmh 29.66 in1004.4 mb 0.00 in0.0 mm 0.00 in0.0 mm 0.13 in3.3 mm
11:44 PM 43.3°F6.3°C 37.0°F2.8°C 78% 1.0 mph SW1.6 kmh SW 4.0 mph6.4 kmh 29.66 in1004.4 mb 0.00 in0.0 mm 0.00 in0.0 mm 0.13 in3.3 mm